Time,TemperatureF,DewpointF,PressureIn,WindDirection,WindDirectionDegrees,WindSpeedMPH,WindSpeedGustMPH,Humidity,HourlyPrecipIn,Conditions,Clouds,dailyrainin,SolarRadiationWatts/m^2,SoftwareType,DateUTC
2013-03-08 00:01:00,24.0,12.0,-100.00,North,8,8.0,11.0,60,0.00,,,0.00,0.000000,,2013-03-08 07:01:00,
2013-03-08 00:32:00,23.0,13.0,-100.00,NNE,16,5.0,11.0,65,0.00,,,0.00,0.000000,,2013-03-08 07:32:00,
2013-03-08 00:42:00,23.0,13.0,-100.00,NNE,16,5.0,11.0,65,0.00,,,0.00,0.000000,,2013-03-08 07:42:00,
2013-03-08 00:52:00,23.0,13.0,-100.00,NNE,16,5.0,11.0,65,0.00,,,0.00,0.000000,,2013-03-08 07:52:00,
2013-03-08 01:01:00,23.0,13.0,-100.00,NNE,16,5.0,11.0,65,0.00,,,0.00,0.000000,,2013-03-08 08:01:00,
2013-03-08 01:32:00,22.0,13.0,-100.00,North,5,3.0,6.0,67,0.00,,,0.00,0.000000,,2013-03-08 08:32:00,
2013-03-08 01:42:00,22.0,13.0,-100.00,North,5,3.0,6.0,67,0.00,,,0.00,0.000000,,2013-03-08 08:42:00,
2013-03-08 01:52:00,22.0,13.0,-100.00,North,5,3.0,6.0,67,0.00,,,0.00,0.000000,,2013-03-08 08:52:00,
2013-03-08 02:02:00,22.0,13.0,-100.00,North,5,3.0,6.0,67,0.00,,,0.00,0.000000,,2013-03-08 09:02:00,
2013-03-08 02:32:00,20.0,12.0,-100.00,NNE,31,4.0,8.0,71,0.00,,,0.00,0.000000,,2013-03-08 09:32:00,
2013-03-08 02:42:00,20.0,12.0,-100.00,NNE,31,4.0,8.0,71,0.00,,,0.00,0.000000,,2013-03-08 09:42:00,
2013-03-08 02:52:00,20.0,12.0,-100.00,NNE,31,4.0,8.0,71,0.00,,,0.00,0.000000,,2013-03-08 09:52:00,
2013-03-08 03:01:00,20.0,12.0,-100.00,NNE,31,4.0,8.0,71,0.00,,,0.00,0.000000,,2013-03-08 10:01:00,
2013-03-08 03:32:00,19.0,12.0,-100.00,NNW,335,1.0,6.0,75,0.00,,,0.00,0.000000,,2013-03-08 10:32:00,
2013-03-08 03:42:00,19.0,12.0,-100.00,NNW,335,1.0,6.0,75,0.00,,,0.00,0.000000,,2013-03-08 10:42:00,
2013-03-08 03:52:00,19.0,12.0,-100.00,NNW,335,1.0,6.0,75,0.00,,,0.00,0.000000,,2013-03-08 10:52:00,
2013-03-08 04:01:00,19.0,12.0,-100.00,NNW,335,1.0,6.0,75,0.00,,,0.00,0.000000,,2013-03-08 11:01:00,
2013-03-08 04:32:00,18.0,11.0,-100.00,NW,320,2.0,4.0,75,0.00,,,0.00,0.000000,,2013-03-08 11:32:00,
2013-03-08 04:42:00,18.0,11.0,-100.00,NW,320,2.0,4.0,75,0.00,,,0.00,0.000000,,2013-03-08 11:42:00,
2013-03-08 04:52:00,18.0,11.0,-100.00,NW,320,2.0,4.0,75,0.00,,,0.00,0.000000,,2013-03-08 11:52:00,
2013-03-08 05:01:00,18.0,11.0,-100.00,NW,320,2.0,4.0,75,0.00,,,0.00,0.000000,,2013-03-08 12:01:00,
2013-03-08 05:32:00,17.0,10.0,-100.00,NNE,14,3.0,5.0,73,0.00,,,0.00,0.000000,,2013-03-08 12:32:00,
2013-03-08 05:43:00,17.0,10.0,-100.00,NNE,14,3.0,5.0,73,0.00,,,0.00,0.000000,,2013-03-08 12:43:00,
2013-03-08 05:52:00,17.0,10.0,-100.00,NNE,14,3.0,5.0,73,0.00,,,0.00,0.000000,,2013-03-08 12:52:00,
2013-03-08 06:01:00,17.0,10.0,-100.00,NNE,14,3.0,5.0,73,0.00,,,0.00,0.000000,,2013-03-08 13:01:00,
2013-03-08 06:32:00,17.0,11.0,-100.00,NNE,12,2.0,7.0,76,0.00,,,-99.99,0.000000,,2013-03-08 13:32:00,
2013-03-08 06:42:00,17.0,11.0,-100.00,NNE,12,2.0,7.0,76,0.00,,,-99.99,0.000000,,2013-03-08 13:42:00,
2013-03-08 06:52:00,17.0,11.0,-100.00,NNE,12,2.0,7.0,76,0.00,,,-99.99,0.000000,,2013-03-08 13:52:00,
2013-03-08 07:02:00,17.0,11.0,-100.00,NNE,12,2.0,7.0,76,0.00,,,-99.99,0.000000,,2013-03-08 14:02:00,
2013-03-08 07:32:00,17.0,10.0,-100.00,ENE,61,2.0,5.0,73,0.00,,,0.00,1.000000,,2013-03-08 14:32:00,
2013-03-08 07:42:00,17.0,10.0,-100.00,ENE,61,2.0,5.0,73,0.00,,,0.00,1.000000,,2013-03-08 14:42:00,
2013-03-08 07:52:00,17.0,10.0,-100.00,ENE,61,2.0,5.0,73,0.00,,,0.00,1.000000,,2013-03-08 14:52:00,
2013-03-08 08:02:00,17.0,10.0,-100.00,ENE,61,2.0,5.0,73,0.00,,,0.00,1.000000,,2013-03-08 15:02:00,
2013-03-08 08:32:00,20.0,11.0,-100.00,NE,48,4.0,5.0,67,0.00,,,0.00,21.000000,,2013-03-08 15:32:00,
2013-03-08 08:43:00,20.0,11.0,-100.00,NE,48,4.0,5.0,67,0.00,,,0.00,21.000000,,2013-03-08 15:43:00,
2013-03-08 08:53:00,20.0,11.0,-100.00,NE,48,4.0,5.0,67,0.00,,,0.00,21.000000,,2013-03-08 15:53:00,
2013-03-08 09:01:00,20.0,11.0,-100.00,NE,48,4.0,5.0,67,0.00,,,0.00,21.000000,,2013-03-08 16:01:00,
2013-03-08 09:32:00,27.0,13.0,-100.00,NNW,347,2.0,5.0,56,0.00,,,0.00,171.000000,,2013-03-08 16:32:00,
2013-03-08 09:42:00,27.0,13.0,-100.00,NNW,347,2.0,5.0,56,0.00,,,0.00,171.000000,,2013-03-08 16:42:00,
2013-03-08 09:52:00,27.0,13.0,-100.00,NNW,347,2.0,5.0,56,0.00,,,0.00,171.000000,,2013-03-08 16:52:00,
2013-03-08 10:02:00,27.0,13.0,-100.00,NNW,347,2.0,5.0,56,0.00,,,0.00,171.000000,,2013-03-08 17:02:00,
2013-03-08 10:32:00,34.0,14.0,-100.00,SSW,198,2.0,5.0,43,0.00,,,0.00,455.000000,,2013-03-08 17:32:00,
2013-03-08 10:42:00,34.0,14.0,-100.00,SSW,198,2.0,5.0,43,0.00,,,0.00,455.000000,,2013-03-08 17:42:00,
2013-03-08 10:52:00,34.0,14.0,-100.00,SSW,198,2.0,5.0,43,0.00,,,0.00,455.000000,,2013-03-08 17:52:00,
2013-03-08 11:01:00,34.0,14.0,-100.00,SSW,198,2.0,5.0,43,0.00,,,0.00,455.000000,,2013-03-08 18:01:00,
2013-03-08 11:32:00,36.0,14.0,-100.00,WSW,251,4.0,6.0,40,-99.99,,,0.00,547.000000,,2013-03-08 18:32:00,
2013-03-08 11:42:00,36.0,14.0,-100.00,WSW,251,4.0,6.0,40,-99.99,,,0.00,547.000000,,2013-03-08 18:42:00,
2013-03-08 11:52:00,36.0,14.0,-100.00,WSW,251,4.0,6.0,40,-99.99,,,0.00,547.000000,,2013-03-08 18:52:00,
2013-03-08 12:01:00,36.0,14.0,-100.00,WSW,251,4.0,6.0,40,-99.99,,,0.00,547.000000,,2013-03-08 19:01:00,
2013-03-08 12:32:00,36.0,12.0,-100.00,SSW,204,9.0,13.0,37,0.00,,,0.00,752.000000,,2013-03-08 19:32:00,
2013-03-08 12:42:00,36.0,12.0,-100.00,SSW,204,9.0,13.0,37,0.00,,,0.00,752.000000,,2013-03-08 19:42:00,
2013-03-08 12:52:00,36.0,12.0,-100.00,SSW,204,9.0,13.0,37,0.00,,,0.00,752.000000,,2013-03-08 19:52:00,
2013-03-08 13:01:00,36.0,12.0,-100.00,SSW,204,9.0,13.0,37,0.00,,,0.00,752.000000,,2013-03-08 20:01:00,
2013-03-08 13:32:00,38.0,12.0,-100.00,SSW,204,13.0,17.0,34,0.00,,,0.00,802.000000,,2013-03-08 20:32:00,
2013-03-08 13:42:00,38.0,12.0,-100.00,SSW,204,13.0,17.0,34,0.00,,,0.00,802.000000,,2013-03-08 20:42:00,
2013-03-08 13:53:00,38.0,12.0,-100.00,SSW,204,13.0,17.0,34,0.00,,,0.00,802.000000,,2013-03-08 20:53:00,
2013-03-08 14:01:00,38.0,12.0,-100.00,SSW,204,13.0,17.0,34,0.00,,,0.00,802.000000,,2013-03-08 21:01:00,
2013-03-08 14:32:00,38.0,11.0,-100.00,SSW,195,16.0,22.0,32,0.00,,,0.00,785.000000,,2013-03-08 21:32:00,
2013-03-08 14:42:00,38.0,11.0,-100.00,SSW,195,16.0,22.0,32,0.00,,,0.00,785.000000,,2013-03-08 21:42:00,
2013-03-08 14:52:00,38.0,11.0,-100.00,SSW,195,16.0,22.0,32,0.00,,,0.00,785.000000,,2013-03-08 21:52:00,
2013-03-08 15:01:00,38.0,11.0,-100.00,SSW,195,16.0,22.0,32,0.00,,,0.00,785.000000,,2013-03-08 22:01:00,
2013-03-08 15:32:00,41.0,13.0,-100.00,SW,233,8.0,23.0,31,0.00,,,0.00,702.000000,,2013-03-08 22:32:00,
2013-03-08 16:01:00,41.0,13.0,-100.00,SW,233,8.0,23.0,31,0.00,,,0.00,702.000000,,2013-03-08 23:01:00,
2013-03-08 16:32:00,40.0,6.0,-100.00,West,279,9.0,18.0,24,0.00,,,0.00,543.000000,,2013-03-08 23:32:00,
2013-03-08 16:42:00,40.0,6.0,-100.00,West,279,9.0,18.0,24,0.00,,,0.00,543.000000,,2013-03-08 23:42:00,
2013-03-08 16:52:00,40.0,6.0,-100.00,West,279,9.0,18.0,24,0.00,,,0.00,543.000000,,2013-03-08 23:52:00,
2013-03-08 17:01:00,40.0,6.0,-100.00,West,279,9.0,18.0,24,0.00,,,0.00,543.000000,,2013-03-09 00:01:00,
2013-03-08 17:32:00,36.0,4.0,-100.00,NW,308,13.0,18.0,25,0.00,,,0.00,370.000000,,2013-03-09 00:32:00,
2013-03-08 20:32:00,29.0,9.0,-100.00,North,6,5.0,9.0,42,-99.99,,,0.00,0.000000,,2013-03-09 03:32:00,
2013-03-08 20:42:00,29.0,9.0,-100.00,North,6,5.0,9.0,42,-99.99,,,0.00,0.000000,,2013-03-09 03:42:00,
2013-03-08 20:52:00,29.0,9.0,-100.00,North,6,5.0,9.0,42,-99.99,,,0.00,0.000000,,2013-03-09 03:52:00,
2013-03-08 21:01:00,29.0,9.0,-100.00,North,6,5.0,9.0,42,-99.99,,,0.00,0.000000,,2013-03-09 04:01:00,
2013-03-08 21:32:00,27.0,10.0,-100.00,NNW,343,3.0,10.0,49,0.00,,,0.00,0.000000,,2013-03-09 04:32:00,
2013-03-08 21:42:00,27.0,10.0,-100.00,NNW,343,3.0,10.0,49,0.00,,,0.00,0.000000,,2013-03-09 04:42:00,
2013-03-08 21:52:00,27.0,10.0,-100.00,NNW,343,3.0,10.0,49,0.00,,,0.00,0.000000,,2013-03-09 04:52:00,
2013-03-08 22:01:00,27.0,10.0,-100.00,NNW,343,3.0,10.0,49,0.00,,,0.00,0.000000,,2013-03-09 05:01:00,
2013-03-08 22:32:00,25.0,13.0,-100.00,WSW,240,5.0,7.0,59,0.00,,,0.00,0.000000,,2013-03-09 05:32:00,
2013-03-08 22:43:00,25.0,13.0,-100.00,WSW,240,5.0,7.0,59,0.00,,,0.00,0.000000,,2013-03-09 05:43:00,
2013-03-08 22:53:00,25.0,13.0,-100.00,WSW,240,5.0,7.0,59,0.00,,,0.00,0.000000,,2013-03-09 05:53:00,
2013-03-08 23:01:00,25.0,13.0,-100.00,WSW,240,5.0,7.0,59,0.00,,,0.00,0.000000,,2013-03-09 06:01:00,
2013-03-08 23:32:00,24.0,13.0,-100.00,SW,230,7.0,8.0,62,0.00,,,0.00,0.000000,,2013-03-09 06:32:00,
2013-03-08 23:42:00,24.0,13.0,-100.00,SW,230,7.0,8.0,62,0.00,,,0.00,0.000000,,2013-03-09 06:42:00,
2013-03-08 23:52:00,24.0,13.0,-100.00,SW,230,7.0,8.0,62,0.00,,,0.00,0.000000,,2013-03-09 06:52:00,